sensor_id;sensor_type;location;lat;lon;timestamp;P1;durP1;ratioP1;P2;durP2;ratioP2
18867;SDS011;9563;49.240;9.088;2023-07-29T04:02:40;3.33;;;2.40;;
18867;SDS011;9563;49.240;9.088;2023-07-29T04:05:08;3.10;;;1.83;;
18867;SDS011;9563;49.240;9.088;2023-07-29T04:07:35;6.93;;;2.35;;
18867;SDS011;9563;49.240;9.088;2023-07-29T04:10:02;6.55;;;2.17;;
18867;SDS011;9563;49.240;9.088;2023-07-29T04:12:31;3.60;;;1.95;;
18867;SDS011;9563;49.240;9.088;2023-07-29T04:14:58;3.22;;;2.50;;
18867;SDS011;9563;49.240;9.088;2023-07-29T04:17:26;2.78;;;1.88;;
18867;SDS011;9563;49.240;9.088;2023-07-29T04:19:55;4.05;;;1.90;;
18867;SDS011;9563;49.240;9.088;2023-07-29T04:22:22;3.10;;;1.85;;
18867;SDS011;9563;49.240;9.088;2023-07-29T04:24:49;3.67;;;1.83;;
18867;SDS011;9563;49.240;9.088;2023-07-29T04:27:16;4.68;;;2.22;;
18867;SDS011;9563;49.240;9.088;2023-07-29T04:29:44;4.75;;;2.20;;
18867;SDS011;9563;49.240;9.088;2023-07-29T04:32:13;7.43;;;2.13;;
18867;SDS011;9563;49.240;9.088;2023-07-29T04:34:41;2.10;;;1.83;;
18867;SDS011;9563;49.240;9.088;2023-07-29T04:37:08;5.70;;;2.03;;
18867;SDS011;9563;49.240;9.088;2023-07-29T04:39:35;7.53;;;2.10;;
18867;SDS011;9563;49.240;9.088;2023-07-29T04:42:02;4.35;;;2.83;;
18867;SDS011;9563;49.240;9.088;2023-07-29T04:44:30;3.42;;;2.40;;
18867;SDS011;9563;49.240;9.088;2023-07-29T04:46:59;4.15;;;2.10;;
18867;SDS011;9563;49.240;9.088;2023-07-29T04:49:26;4.18;;;1.80;;
18867;SDS011;9563;49.240;9.088;2023-07-29T04:51:54;5.93;;;2.47;;
18867;SDS011;9563;49.240;9.088;2023-07-29T04:54:21;4.35;;;2.60;;
18867;SDS011;9563;49.240;9.088;2023-07-29T04:56:49;3.05;;;2.25;;
18867;SDS011;9563;49.240;9.088;2023-07-29T04:59:16;2.88;;;2.13;;
18867;SDS011;9563;49.240;9.088;2023-07-29T05:01:44;4.70;;;2.47;;
18867;SDS011;9563;49.240;9.088;2023-07-29T05:04:10;7.13;;;2.28;;
18867;SDS011;9563;49.240;9.088;2023-07-29T05:06:37;5.38;;;2.38;;
18867;SDS011;9563;49.240;9.088;2023-07-29T05:09:16;4.70;;;2.50;;
18867;SDS011;9563;49.240;9.088;2023-07-29T05:11:45;3.80;;;2.10;;
18867;SDS011;9563;49.240;9.088;2023-07-29T05:14:14;5.57;;;2.47;;
18867;SDS011;9563;49.240;9.088;2023-07-29T05:16:42;7.18;;;2.70;;
18867;SDS011;9563;49.240;9.088;2023-07-29T05:19:10;4.68;;;2.00;;
18867;SDS011;9563;49.240;9.088;2023-07-29T05:21:37;5.18;;;2.50;;
18867;SDS011;9563;49.240;9.088;2023-07-29T05:24:04;4.80;;;2.47;;
18867;SDS011;9563;49.240;9.088;2023-07-29T05:26:32;8.13;;;2.95;;
18867;SDS011;9563;49.240;9.088;2023-07-29T05:28:59;8.13;;;2.40;;
18867;SDS011;9563;49.240;9.088;2023-07-29T05:31:26;7.70;;;2.38;;
18867;SDS011;9563;49.240;9.088;2023-07-29T05:33:53;6.82;;;2.25;;
18867;SDS011;9563;49.240;9.088;2023-07-29T05:36:21;6.55;;;1.75;;
18867;SDS011;9563;49.240;9.088;2023-07-29T05:38:48;7.00;;;2.30;;
18867;SDS011;9563;49.240;9.088;2023-07-29T05:41:14;3.65;;;1.55;;
18867;SDS011;9563;49.240;9.088;2023-07-29T05:43:43;4.50;;;2.22;;
18867;SDS011;9563;49.240;9.088;2023-07-29T05:46:10;6.93;;;2.33;;
18867;SDS011;9563;49.240;9.088;2023-07-29T05:48:37;3.45;;;2.47;;
18867;SDS011;9563;49.240;9.088;2023-07-29T05:51:04;14.48;;;2.40;;
18867;SDS011;9563;49.240;9.088;2023-07-29T05:53:31;2.78;;;1.90;;
18867;SDS011;9563;49.240;9.088;2023-07-29T05:55:58;2.83;;;1.85;;
18867;SDS011;9563;49.240;9.088;2023-07-29T05:58:25;4.05;;;1.95;;
18867;SDS011;9563;49.240;9.088;2023-07-29T06:00:53;2.30;;;1.73;;
18867;SDS011;9563;49.240;9.088;2023-07-29T06:03:20;4.38;;;2.13;;
18867;SDS011;9563;49.240;9.088;2023-07-29T06:05:48;8.15;;;2.38;;
18867;SDS011;9563;49.240;9.088;2023-07-29T06:08:15;4.78;;;1.90;;
18867;SDS011;9563;49.240;9.088;2023-07-29T06:10:42;6.18;;;1.92;;
18867;SDS011;9563;49.240;9.088;2023-07-29T06:13:09;3.05;;;1.98;;
18867;SDS011;9563;49.240;9.088;2023-07-29T06:15:35;4.03;;;2.22;;
18867;SDS011;9563;49.240;9.088;2023-07-29T06:18:04;7.22;;;2.17;;
18867;SDS011;9563;49.240;9.088;2023-07-29T06:20:31;7.78;;;2.35;;
18867;SDS011;9563;49.240;9.088;2023-07-29T06:22:57;5.60;;;2.33;;
18867;SDS011;9563;49.240;9.088;2023-07-29T06:25:24;6.82;;;2.35;;
18867;SDS011;9563;49.240;9.088;2023-07-29T06:27:51;9.18;;;2.55;;
18867;SDS011;9563;49.240;9.088;2023-07-29T06:30:18;6.90;;;2.80;;
18867;SDS011;9563;49.240;9.088;2023-07-29T06:32:45;3.55;;;2.03;;
18867;SDS011;9563;49.240;9.088;2023-07-29T06:35:13;10.50;;;2.67;;
18867;SDS011;9563;49.240;9.088;2023-07-29T06:37:40;2.95;;;1.73;;
18867;SDS011;9563;49.240;9.088;2023-07-29T06:40:07;3.53;;;2.00;;
18867;SDS011;9563;49.240;9.088;2023-07-29T06:42:34;3.42;;;2.22;;
18867;SDS011;9563;49.240;9.088;2023-07-29T06:45:02;6.05;;;2.40;;
18867;SDS011;9563;49.240;9.088;2023-07-29T06:47:29;4.82;;;2.35;;
18867;SDS011;9563;49.240;9.088;2023-07-29T06:49:57;6.97;;;2.40;;
18867;SDS011;9563;49.240;9.088;2023-07-29T06:52:25;3.55;;;2.15;;
18867;SDS011;9563;49.240;9.088;2023-07-29T06:54:52;4.05;;;2.13;;
18867;SDS011;9563;49.240;9.088;2023-07-29T06:57:18;6.40;;;2.25;;
18867;SDS011;9563;49.240;9.088;2023-07-29T06:59:45;3.90;;;2.65;;
18867;SDS011;9563;49.240;9.088;2023-07-29T07:02:12;6.50;;;2.45;;
18867;SDS011;9563;49.240;9.088;2023-07-29T07:04:39;4.20;;;2.38;;
18867;SDS011;9563;49.240;9.088;2023-07-29T07:07:06;5.50;;;2.60;;
18867;SDS011;9563;49.240;9.088;2023-07-29T07:09:34;4.43;;;2.25;;
18867;SDS011;9563;49.240;9.088;2023-07-29T07:12:01;6.80;;;3.08;;
18867;SDS011;9563;49.240;9.088;2023-07-29T07:14:28;7.95;;;2.10;;
18867;SDS011;9563;49.240;9.088;2023-07-29T07:16:55;4.15;;;2.10;;
18867;SDS011;9563;49.240;9.088;2023-07-29T07:19:22;3.83;;;2.63;;
18867;SDS011;9563;49.240;9.088;2023-07-29T07:21:49;5.00;;;2.30;;
18867;SDS011;9563;49.240;9.088;2023-07-29T07:24:15;3.72;;;2.40;;
18867;SDS011;9563;49.240;9.088;2023-07-29T07:26:44;4.43;;;1.95;;
18867;SDS011;9563;49.240;9.088;2023-07-29T07:29:11;4.90;;;2.35;;
18867;SDS011;9563;49.240;9.088;2023-07-29T07:31:37;4.30;;;2.35;;
18867;SDS011;9563;49.240;9.088;2023-07-29T07:34:04;7.13;;;2.45;;
18867;SDS011;9563;49.240;9.088;2023-07-29T07:36:31;2.80;;;1.92;;
18867;SDS011;9563;49.240;9.088;2023-07-29T07:38:58;6.20;;;2.20;;
18867;SDS011;9563;49.240;9.088;2023-07-29T07:41:25;4.05;;;1.95;;
18867;SDS011;9563;49.240;9.088;2023-07-29T07:43:53;5.90;;;1.83;;
18867;SDS011;9563;49.240;9.088;2023-07-29T07:46:20;8.65;;;1.98;;
18867;SDS011;9563;49.240;9.088;2023-07-29T07:48:46;4.13;;;1.90;;
18867;SDS011;9563;49.240;9.088;2023-07-29T07:51:13;2.63;;;2.00;;
18867;SDS011;9563;49.240;9.088;2023-07-29T07:53:40;3.05;;;1.92;;
18867;SDS011;9563;49.240;9.088;2023-07-29T07:56:07;3.00;;;1.77;;
18867;SDS011;9563;49.240;9.088;2023-07-29T07:58:34;5.80;;;1.80;;
18867;SDS011;9563;49.240;9.088;2023-07-29T08:01:03;2.85;;;1.73;;
18867;SDS011;9563;49.240;9.088;2023-07-29T08:03:30;4.45;;;1.60;;
18867;SDS011;9563;49.240;9.088;2023-07-29T08:05:57;2.90;;;1.60;;
18867;SDS011;9563;49.240;9.088;2023-07-29T08:08:24;3.55;;;1.42;;
18867;SDS011;9563;49.240;9.088;2023-07-29T08:10:52;2.88;;;2.00;;
18867;SDS011;9563;49.240;9.088;2023-07-29T08:13:19;3.50;;;1.60;;
18867;SDS011;9563;49.240;9.088;2023-07-29T08:15:47;3.80;;;1.60;;
18867;SDS011;9563;49.240;9.088;2023-07-29T08:18:15;3.83;;;1.75;;
18867;SDS011;9563;49.240;9.088;2023-07-29T08:20:51;2.95;;;1.52;;
18867;SDS011;9563;49.240;9.088;2023-07-29T08:23:19;1.88;;;1.50;;
18867;SDS011;9563;49.240;9.088;2023-07-29T08:25:50;1.90;;;1.40;;
18867;SDS011;9563;49.240;9.088;2023-07-29T08:28:18;2.45;;;1.55;;
18867;SDS011;9563;49.240;9.088;2023-07-29T08:30:45;4.20;;;1.70;;
18867;SDS011;9563;49.240;9.088;2023-07-29T08:33:12;4.35;;;1.55;;
18867;SDS011;9563;49.240;9.088;2023-07-29T08:35:40;2.20;;;1.45;;
18867;SDS011;9563;49.240;9.088;2023-07-29T08:38:07;3.45;;;1.48;;
18867;SDS011;9563;49.240;9.088;2023-07-29T08:40:34;2.78;;;1.60;;
18867;SDS011;9563;49.240;9.088;2023-07-29T08:43:03;3.47;;;1.60;;
18867;SDS011;9563;49.240;9.088;2023-07-29T08:45:32;2.67;;;1.85;;
18867;SDS011;9563;49.240;9.088;2023-07-29T08:48:02;4.75;;;1.80;;
18867;SDS011;9563;49.240;9.088;2023-07-29T08:50:33;2.15;;;1.60;;
18867;SDS011;9563;49.240;9.088;2023-07-29T08:53:03;4.70;;;1.50;;
18867;SDS011;9563;49.240;9.088;2023-07-29T08:55:30;3.03;;;1.55;;
18867;SDS011;9563;49.240;9.088;2023-07-29T08:57:57;2.80;;;1.30;;
18867;SDS011;9563;49.240;9.088;2023-07-29T09:00:25;4.43;;;1.52;;
18867;SDS011;9563;49.240;9.088;2023-07-29T09:02:53;4.00;;;1.10;;
18867;SDS011;9563;49.240;9.088;2023-07-29T09:05:20;2.65;;;1.33;;
18867;SDS011;9563;49.240;9.088;2023-07-29T09:07:47;2.83;;;1.85;;
18867;SDS011;9563;49.240;9.088;2023-07-29T09:10:18;2.03;;;1.35;;
18867;SDS011;9563;49.240;9.088;2023-07-29T09:12:48;5.82;;;1.23;;
18867;SDS011;9563;49.240;9.088;2023-07-29T09:15:25;7.75;;;1.30;;
18867;SDS011;9563;49.240;9.088;2023-07-29T09:17:54;3.65;;;1.77;;
18867;SDS011;9563;49.240;9.088;2023-07-29T09:20:25;2.35;;;1.30;;
18867;SDS011;9563;49.240;9.088;2023-07-29T09:22:53;2.03;;;1.20;;
18867;SDS011;9563;49.240;9.088;2023-07-29T09:25:26;3.88;;;1.85;;
18867;SDS011;9563;49.240;9.088;2023-07-29T09:27:56;5.20;;;1.50;;
18867;SDS011;9563;49.240;9.088;2023-07-29T09:30:25;4.15;;;1.65;;
18867;SDS011;9563;49.240;9.088;2023-07-29T09:32:54;3.10;;;1.67;;
18867;SDS011;9563;49.240;9.088;2023-07-29T09:35:22;4.88;;;1.70;;
18867;SDS011;9563;49.240;9.088;2023-07-29T09:37:50;3.22;;;1.70;;
18867;SDS011;9563;49.240;9.088;2023-07-29T09:40:17;4.38;;;1.40;;
18867;SDS011;9563;49.240;9.088;2023-07-29T09:42:50;3.17;;;1.60;;
18867;SDS011;9563;49.240;9.088;2023-07-29T09:45:19;1.35;;;1.23;;
18867;SDS011;9563;49.240;9.088;2023-07-29T09:47:47;3.10;;;1.35;;
18867;SDS011;9563;49.240;9.088;2023-07-29T09:50:14;1.45;;;1.25;;
18867;SDS011;9563;49.240;9.088;2023-07-29T09:52:41;1.95;;;1.15;;
18867;SDS011;9563;49.240;9.088;2023-07-29T09:55:09;2.75;;;1.50;;
18867;SDS011;9563;49.240;9.088;2023-07-29T09:57:36;3.65;;;1.27;;
18867;SDS011;9563;49.240;9.088;2023-07-29T10:00:06;3.63;;;1.58;;
18867;SDS011;9563;49.240;9.088;2023-07-29T10:02:36;2.20;;;1.70;;
18867;SDS011;9563;49.240;9.088;2023-07-29T10:05:04;3.42;;;1.33;;
18867;SDS011;9563;49.240;9.088;2023-07-29T10:07:32;1.60;;;1.30;;
18867;SDS011;9563;49.240;9.088;2023-07-29T10:10:00;2.00;;;1.13;;
18867;SDS011;9563;49.240;9.088;2023-07-29T10:12:28;2.22;;;1.20;;
18867;SDS011;9563;49.240;9.088;2023-07-29T10:14:57;2.85;;;1.50;;
18867;SDS011;9563;49.240;9.088;2023-07-29T10:17:27;2.78;;;1.35;;
18867;SDS011;9563;49.240;9.088;2023-07-29T10:19:55;1.90;;;1.40;;
18867;SDS011;9563;49.240;9.088;2023-07-29T10:22:24;1.88;;;1.35;;
18867;SDS011;9563;49.240;9.088;2023-07-29T10:24:54;1.45;;;1.30;;
18867;SDS011;9563;49.240;9.088;2023-07-29T10:27:29;4.40;;;1.63;;
18867;SDS011;9563;49.240;9.088;2023-07-29T10:29:58;3.00;;;1.27;;
18867;SDS011;9563;49.240;9.088;2023-07-29T10:32:27;2.05;;;1.17;;
18867;SDS011;9563;49.240;9.088;2023-07-29T10:34:54;1.42;;;1.33;;
18867;SDS011;9563;49.240;9.088;2023-07-29T10:37:21;0.77;;;0.77;;
18867;SDS011;9563;49.240;9.088;2023-07-29T10:39:53;1.40;;;0.85;;
18867;SDS011;9563;49.240;9.088;2023-07-29T10:42:21;1.48;;;1.10;;
18867;SDS011;9563;49.240;9.088;2023-07-29T10:44:49;2.13;;;1.27;;
18867;SDS011;9563;49.240;9.088;2023-07-29T10:47:17;1.45;;;1.10;;
18867;SDS011;9563;49.240;9.088;2023-07-29T10:49:49;4.47;;;1.23;;
18867;SDS011;9563;49.240;9.088;2023-07-29T10:52:27;1.33;;;1.02;;
18867;SDS011;9563;49.240;9.088;2023-07-29T10:54:55;1.23;;;1.13;;
18867;SDS011;9563;49.240;9.088;2023-07-29T10:57:30;3.83;;;1.40;;
18867;SDS011;9563;49.240;9.088;2023-07-29T10:59:58;2.13;;;1.27;;
18867;SDS011;9563;49.240;9.088;2023-07-29T11:02:29;3.05;;;1.40;;
18867;SDS011;9563;49.240;9.088;2023-07-29T11:04:58;3.58;;;1.35;;
18867;SDS011;9563;49.240;9.088;2023-07-29T11:07:30;1.67;;;1.33;;
18867;SDS011;9563;49.240;9.088;2023-07-29T11:09:58;5.53;;;1.80;;
18867;SDS011;9563;49.240;9.088;2023-07-29T11:12:33;3.33;;;2.10;;
18867;SDS011;9563;49.240;9.088;2023-07-29T11:15:02;9.15;;;1.77;;
18867;SDS011;9563;49.240;9.088;2023-07-29T11:17:31;7.00;;;1.80;;
18867;SDS011;9563;49.240;9.088;2023-07-29T11:20:02;2.22;;;1.70;;
18867;SDS011;9563;49.240;9.088;2023-07-29T11:22:31;4.00;;;1.63;;
18867;SDS011;9563;49.240;9.088;2023-07-29T11:24:58;3.25;;;1.92;;
18867;SDS011;9563;49.240;9.088;2023-07-29T11:27:25;3.33;;;1.85;;
18867;SDS011;9563;49.240;9.088;2023-07-29T11:29:56;2.20;;;1.75;;
18867;SDS011;9563;49.240;9.088;2023-07-29T11:32:23;4.32;;;1.80;;
18867;SDS011;9563;49.240;9.088;2023-07-29T11:34:51;2.85;;;1.70;;
18867;SDS011;9563;49.240;9.088;2023-07-29T11:37:20;1.40;;;1.30;;
18867;SDS011;9563;49.240;9.088;2023-07-29T11:39:47;2.00;;;1.45;;
18867;SDS011;9563;49.240;9.088;2023-07-29T11:42:14;1.73;;;1.23;;
18867;SDS011;9563;49.240;9.088;2023-07-29T11:44:42;2.70;;;1.40;;
18867;SDS011;9563;49.240;9.088;2023-07-29T11:47:09;2.42;;;1.08;;
18867;SDS011;9563;49.240;9.088;2023-07-29T11:49:38;2.33;;;1.70;;
18867;SDS011;9563;49.240;9.088;2023-07-29T11:52:06;5.20;;;1.10;;
18867;SDS011;9563;49.240;9.088;2023-07-29T11:54:36;7.78;;;1.48;;
18867;SDS011;9563;49.240;9.088;2023-07-29T11:57:04;3.60;;;1.20;;
18867;SDS011;9563;49.240;9.088;2023-07-29T11:59:32;2.83;;;1.05;;
18867;SDS011;9563;49.240;9.088;2023-07-29T12:02:00;2.15;;;1.40;;
18867;SDS011;9563;49.240;9.088;2023-07-29T12:04:28;1.60;;;1.30;;
18867;SDS011;9563;49.240;9.088;2023-07-29T12:06:56;3.97;;;1.23;;
18867;SDS011;9563;49.240;9.088;2023-07-29T12:09:25;4.70;;;1.10;;
18867;SDS011;9563;49.240;9.088;2023-07-29T12:11:54;1.73;;;1.33;;
18867;SDS011;9563;49.240;9.088;2023-07-29T12:14:22;1.95;;;1.10;;
18867;SDS011;9563;49.240;9.088;2023-07-29T12:16:52;1.83;;;0.90;;
18867;SDS011;9563;49.240;9.088;2023-07-29T12:19:19;3.15;;;1.60;;
18867;SDS011;9563;49.240;9.088;2023-07-29T12:21:47;1.25;;;1.05;;
18867;SDS011;9563;49.240;9.088;2023-07-29T12:24:14;1.50;;;1.35;;
18867;SDS011;9563;49.240;9.088;2023-07-29T12:26:41;1.60;;;1.17;;
18867;SDS011;9563;49.240;9.088;2023-07-29T12:29:17;1.65;;;1.13;;
18867;SDS011;9563;49.240;9.088;2023-07-29T12:31:45;5.35;;;1.40;;
18867;SDS011;9563;49.240;9.088;2023-07-29T12:34:17;1.55;;;1.23;;
18867;SDS011;9563;49.240;9.088;2023-07-29T12:36:45;1.40;;;1.23;;
18867;SDS011;9563;49.240;9.088;2023-07-29T12:39:17;2.75;;;1.30;;
18867;SDS011;9563;49.240;9.088;2023-07-29T12:41:43;1.33;;;1.20;;
18867;SDS011;9563;49.240;9.088;2023-07-29T12:44:10;2.65;;;1.33;;
18867;SDS011;9563;49.240;9.088;2023-07-29T12:46:39;3.42;;;1.08;;
18867;SDS011;9563;49.240;9.088;2023-07-29T12:49:06;1.40;;;1.08;;
18867;SDS011;9563;49.240;9.088;2023-07-29T12:51:33;1.30;;;0.95;;
18867;SDS011;9563;49.240;9.088;2023-07-29T12:54:01;1.75;;;1.17;;
18867;SDS011;9563;49.240;9.088;2023-07-29T12:56:29;1.83;;;1.17;;
18867;SDS011;9563;49.240;9.088;2023-07-29T12:58:56;1.27;;;1.15;;
18867;SDS011;9563;49.240;9.088;2023-07-29T13:01:23;1.25;;;1.15;;
18867;SDS011;9563;49.240;9.088;2023-07-29T13:03:52;2.05;;;1.20;;
18867;SDS011;9563;49.240;9.088;2023-07-29T13:06:19;2.33;;;1.25;;
18867;SDS011;9563;49.240;9.088;2023-07-29T13:08:46;3.22;;;1.35;;
18867;SDS011;9563;49.240;9.088;2023-07-29T13:11:13;3.67;;;1.50;;
18867;SDS011;9563;49.240;9.088;2023-07-29T13:13:41;2.80;;;1.40;;
18867;SDS011;9563;49.240;9.088;2023-07-29T13:16:08;4.80;;;1.20;;
18867;SDS011;9563;49.240;9.088;2023-07-29T13:18:35;3.15;;;1.30;;
18867;SDS011;9563;49.240;9.088;2023-07-29T13:21:03;1.58;;;1.10;;
18867;SDS011;9563;49.240;9.088;2023-07-29T13:23:30;2.88;;;1.30;;
18867;SDS011;9563;49.240;9.088;2023-07-29T13:25:57;1.73;;;1.55;;
18867;SDS011;9563;49.240;9.088;2023-07-29T13:28:24;3.20;;;1.55;;
18867;SDS011;9563;49.240;9.088;2023-07-29T13:30:51;3.33;;;1.38;;
18867;SDS011;9563;49.240;9.088;2023-07-29T13:33:18;3.45;;;1.08;;
18867;SDS011;9563;49.240;9.088;2023-07-29T13:35:45;5.43;;;1.60;;
18867;SDS011;9563;49.240;9.088;2023-07-29T13:38:13;3.55;;;1.35;;
18867;SDS011;9563;49.240;9.088;2023-07-29T13:40:41;3.13;;;1.23;;
18867;SDS011;9563;49.240;9.088;2023-07-29T13:43:08;2.42;;;1.60;;
18867;SDS011;9563;49.240;9.088;2023-07-29T13:45:35;2.47;;;1.40;;
18867;SDS011;9563;49.240;9.088;2023-07-29T13:48:02;4.10;;;1.40;;
18867;SDS011;9563;49.240;9.088;2023-07-29T13:50:29;3.30;;;1.45;;
18867;SDS011;9563;49.240;9.088;2023-07-29T13:52:56;1.83;;;1.48;;
18867;SDS011;9563;49.240;9.088;2023-07-29T13:55:25;5.85;;;1.30;;
18867;SDS011;9563;49.240;9.088;2023-07-29T13:57:52;1.65;;;1.27;;
18867;SDS011;9563;49.240;9.088;2023-07-29T14:00:20;3.92;;;1.55;;
18867;SDS011;9563;49.240;9.088;2023-07-29T14:02:47;2.13;;;1.58;;
18867;SDS011;9563;49.240;9.088;2023-07-29T14:05:14;1.83;;;1.52;;
18867;SDS011;9563;49.240;9.088;2023-07-29T14:07:41;2.35;;;1.38;;
18867;SDS011;9563;49.240;9.088;2023-07-29T14:10:08;3.40;;;1.27;;
18867;SDS011;9563;49.240;9.088;2023-07-29T14:12:36;2.17;;;1.45;;
18867;SDS011;9563;49.240;9.088;2023-07-29T14:15:03;1.75;;;1.40;;
18867;SDS011;9563;49.240;9.088;2023-07-29T14:17:31;2.67;;;1.60;;
18867;SDS011;9563;49.240;9.088;2023-07-29T14:19:58;3.05;;;1.45;;
18867;SDS011;9563;49.240;9.088;2023-07-29T14:22:25;3.33;;;1.50;;
18867;SDS011;9563;49.240;9.088;2023-07-29T14:24:52;4.97;;;1.40;;
18867;SDS011;9563;49.240;9.088;2023-07-29T14:27:19;2.72;;;1.60;;
18867;SDS011;9563;49.240;9.088;2023-07-29T14:29:47;2.50;;;1.45;;
18867;SDS011;9563;49.240;9.088;2023-07-29T14:32:14;1.40;;;1.25;;
18867;SDS011;9563;49.240;9.088;2023-07-29T14:34:41;5.68;;;1.63;;
18867;SDS011;9563;49.240;9.088;2023-07-29T14:37:07;1.77;;;1.42;;
18867;SDS011;9563;49.240;9.088;2023-07-29T14:39:34;3.85;;;1.50;;
18867;SDS011;9563;49.240;9.088;2023-07-29T14:42:02;1.40;;;1.30;;
18867;SDS011;9563;49.240;9.088;2023-07-29T14:44:29;1.50;;;1.40;;
18867;SDS011;9563;49.240;9.088;2023-07-29T14:46:57;2.15;;;1.50;;
18867;SDS011;9563;49.240;9.088;2023-07-29T14:49:24;4.75;;;1.48;;
18867;SDS011;9563;49.240;9.088;2023-07-29T14:51:51;3.20;;;1.58;;
18867;SDS011;9563;49.240;9.088;2023-07-29T14:54:18;4.82;;;1.50;;
18867;SDS011;9563;49.240;9.088;2023-07-29T14:56:44;4.50;;;1.33;;
18867;SDS011;9563;49.240;9.088;2023-07-29T14:59:11;4.63;;;1.60;;
18867;SDS011;9563;49.240;9.088;2023-07-29T15:01:38;3.90;;;1.40;;
18867;SDS011;9563;49.240;9.088;2023-07-29T15:04:06;2.03;;;1.30;;
18867;SDS011;9563;49.240;9.088;2023-07-29T15:06:33;1.77;;;1.15;;
18867;SDS011;9563;49.240;9.088;2023-07-29T15:09:00;1.77;;;1.45;;
18867;SDS011;9563;49.240;9.088;2023-07-29T15:11:27;1.50;;;1.40;;
18867;SDS011;9563;49.240;9.088;2023-07-29T15:13:54;3.05;;;1.83;;
18867;SDS011;9563;49.240;9.088;2023-07-29T15:16:22;2.05;;;1.38;;
18867;SDS011;9563;49.240;9.088;2023-07-29T15:18:50;2.40;;;1.40;;
18867;SDS011;9563;49.240;9.088;2023-07-29T15:21:18;5.40;;;1.55;;
18867;SDS011;9563;49.240;9.088;2023-07-29T15:23:45;2.08;;;1.27;;
18867;SDS011;9563;49.240;9.088;2023-07-29T15:26:12;1.50;;;1.27;;
18867;SDS011;9563;49.240;9.088;2023-07-29T15:28:39;2.70;;;1.40;;
18867;SDS011;9563;49.240;9.088;2023-07-29T15:31:06;3.00;;;1.30;;
18867;SDS011;9563;49.240;9.088;2023-07-29T15:33:33;2.95;;;1.67;;
18867;SDS011;9563;49.240;9.088;2023-07-29T15:36:00;2.25;;;1.52;;
18867;SDS011;9563;49.240;9.088;2023-07-29T15:38:28;3.05;;;1.30;;
18867;SDS011;9563;49.240;9.088;2023-07-29T15:40:55;3.72;;;1.17;;
18867;SDS011;9563;49.240;9.088;2023-07-29T15:43:22;2.15;;;1.50;;
18867;SDS011;9563;49.240;9.088;2023-07-29T15:45:49;4.43;;;1.65;;
18867;SDS011;9563;49.240;9.088;2023-07-29T15:48:16;1.90;;;1.50;;
18867;SDS011;9563;49.240;9.088;2023-07-29T15:50:43;2.60;;;1.38;;
18867;SDS011;9563;49.240;9.088;2023-07-29T15:53:10;1.75;;;1.60;;
18867;SDS011;9563;49.240;9.088;2023-07-29T15:55:38;3.58;;;1.25;;
18867;SDS011;9563;49.240;9.088;2023-07-29T15:58:05;1.80;;;1.20;;
18867;SDS011;9563;49.240;9.088;2023-07-29T16:00:32;2.17;;;1.60;;
18867;SDS011;9563;49.240;9.088;2023-07-29T16:02:59;3.88;;;1.75;;
18867;SDS011;9563;49.240;9.088;2023-07-29T16:05:26;2.60;;;1.30;;
18867;SDS011;9563;49.240;9.088;2023-07-29T16:07:53;2.53;;;1.73;;
18867;SDS011;9563;49.240;9.088;2023-07-29T16:10:22;3.60;;;1.55;;
18867;SDS011;9563;49.240;9.088;2023-07-29T16:12:51;2.03;;;1.42;;
18867;SDS011;9563;49.240;9.088;2023-07-29T16:15:17;2.25;;;1.50;;
18867;SDS011;9563;49.240;9.088;2023-07-29T16:17:44;3.70;;;1.45;;
18867;SDS011;9563;49.240;9.088;2023-07-29T16:20:14;2.60;;;1.45;;
18867;SDS011;9563;49.240;9.088;2023-07-29T16:22:41;2.55;;;1.70;;
18867;SDS011;9563;49.240;9.088;2023-07-29T16:25:08;4.18;;;1.73;;
18867;SDS011;9563;49.240;9.088;2023-07-29T16:27:35;2.50;;;1.55;;
18867;SDS011;9563;49.240;9.088;2023-07-29T16:30:04;2.45;;;1.30;;
18867;SDS011;9563;49.240;9.088;2023-07-29T16:32:32;4.20;;;1.55;;
18867;SDS011;9563;49.240;9.088;2023-07-29T16:34:59;1.95;;;1.75;;
18867;SDS011;9563;49.240;9.088;2023-07-29T16:37:26;2.85;;;1.40;;
18867;SDS011;9563;49.240;9.088;2023-07-29T16:39:52;2.30;;;1.70;;
18867;SDS011;9563;49.240;9.088;2023-07-29T16:42:20;2.67;;;1.60;;
18867;SDS011;9563;49.240;9.088;2023-07-29T16:44:47;2.95;;;1.58;;
18867;SDS011;9563;49.240;9.088;2023-07-29T16:47:16;2.45;;;1.77;;
18867;SDS011;9563;49.240;9.088;2023-07-29T16:49:42;1.63;;;1.30;;
18867;SDS011;9563;49.240;9.088;2023-07-29T16:52:09;2.10;;;1.63;;
18867;SDS011;9563;49.240;9.088;2023-07-29T16:54:36;6.75;;;1.52;;
18867;SDS011;9563;49.240;9.088;2023-07-29T16:57:03;3.25;;;1.55;;
18867;SDS011;9563;49.240;9.088;2023-07-29T16:59:30;2.47;;;1.48;;
18867;SDS011;9563;49.240;9.088;2023-07-29T17:01:57;3.17;;;1.60;;
18867;SDS011;9563;49.240;9.088;2023-07-29T17:04:27;4.18;;;1.63;;
18867;SDS011;9563;49.240;9.088;2023-07-29T17:06:54;2.50;;;1.52;;
18867;SDS011;9563;49.240;9.088;2023-07-29T17:09:21;1.77;;;1.40;;
18867;SDS011;9563;49.240;9.088;2023-07-29T17:11:48;2.08;;;1.65;;
18867;SDS011;9563;49.240;9.088;2023-07-29T17:14:15;3.83;;;1.50;;
18867;SDS011;9563;49.240;9.088;2023-07-29T17:16:43;1.85;;;1.55;;
18867;SDS011;9563;49.240;9.088;2023-07-29T17:19:10;2.55;;;1.55;;
18867;SDS011;9563;49.240;9.088;2023-07-29T17:21:39;4.70;;;1.80;;
18867;SDS011;9563;49.240;9.088;2023-07-29T17:24:06;2.17;;;1.60;;
18867;SDS011;9563;49.240;9.088;2023-07-29T17:26:33;2.25;;;1.50;;
18867;SDS011;9563;49.240;9.088;2023-07-29T17:29:00;1.83;;;1.30;;
18867;SDS011;9563;49.240;9.088;2023-07-29T17:31:26;2.88;;;1.73;;
18867;SDS011;9563;49.240;9.088;2023-07-29T17:33:54;5.70;;;1.67;;
18867;SDS011;9563;49.240;9.088;2023-07-29T17:36:20;3.20;;;1.67;;
18867;SDS011;9563;49.240;9.088;2023-07-29T17:38:49;2.78;;;1.40;;
18867;SDS011;9563;49.240;9.088;2023-07-29T17:41:16;3.25;;;1.60;;
18867;SDS011;9563;49.240;9.088;2023-07-29T17:43:43;4.57;;;1.60;;
18867;SDS011;9563;49.240;9.088;2023-07-29T17:46:13;3.80;;;1.88;;
18867;SDS011;9563;49.240;9.088;2023-07-29T17:48:42;6.03;;;2.97;;
18867;SDS011;9563;49.240;9.088;2023-07-29T17:51:09;2.72;;;1.90;;
18867;SDS011;9563;49.240;9.088;2023-07-29T17:53:36;17.92;;;3.83;;
18867;SDS011;9563;49.240;9.088;2023-07-29T17:56:04;9.02;;;2.60;;
18867;SDS011;9563;49.240;9.088;2023-07-29T17:58:33;4.25;;;2.33;;
18867;SDS011;9563;49.240;9.088;2023-07-29T18:01:00;5.65;;;1.60;;
18867;SDS011;9563;49.240;9.088;2023-07-29T18:03:27;2.55;;;1.77;;
18867;SDS011;9563;49.240;9.088;2023-07-29T18:05:54;4.97;;;1.55;;
18867;SDS011;9563;49.240;9.088;2023-07-29T18:08:21;5.03;;;2.30;;
18867;SDS011;9563;49.240;9.088;2023-07-29T18:10:48;7.32;;;1.88;;
18867;SDS011;9563;49.240;9.088;2023-07-29T18:13:17;5.45;;;2.00;;
18867;SDS011;9563;49.240;9.088;2023-07-29T18:15:45;3.08;;;1.67;;
18867;SDS011;9563;49.240;9.088;2023-07-29T18:18:15;2.88;;;1.52;;
18867;SDS011;9563;49.240;9.088;2023-07-29T18:20:42;1.85;;;1.42;;
18867;SDS011;9563;49.240;9.088;2023-07-29T18:23:11;3.90;;;1.55;;
18867;SDS011;9563;49.240;9.088;2023-07-29T18:25:40;3.95;;;1.75;;
18867;SDS011;9563;49.240;9.088;2023-07-29T18:28:07;5.65;;;1.83;;
18867;SDS011;9563;49.240;9.088;2023-07-29T18:30:35;2.75;;;2.00;;
18867;SDS011;9563;49.240;9.088;2023-07-29T18:33:02;4.43;;;1.80;;
18867;SDS011;9563;49.240;9.088;2023-07-29T18:35:30;6.53;;;2.05;;
18867;SDS011;9563;49.240;9.088;2023-07-29T18:37:57;5.70;;;2.10;;
18867;SDS011;9563;49.240;9.088;2023-07-29T18:40:25;3.60;;;2.10;;
18867;SDS011;9563;49.240;9.088;2023-07-29T18:42:52;4.35;;;2.10;;
18867;SDS011;9563;49.240;9.088;2023-07-29T18:45:20;7.20;;;1.83;;
18867;SDS011;9563;49.240;9.088;2023-07-29T18:47:48;3.00;;;2.10;;
18867;SDS011;9563;49.240;9.088;2023-07-29T18:50:15;4.57;;;2.08;;
18867;SDS011;9563;49.240;9.088;2023-07-29T18:52:44;6.25;;;1.70;;
18867;SDS011;9563;49.240;9.088;2023-07-29T18:55:11;3.15;;;1.55;;
18867;SDS011;9563;49.240;9.088;2023-07-29T18:57:38;4.13;;;1.90;;
18867;SDS011;9563;49.240;9.088;2023-07-29T19:00:05;4.80;;;2.50;;
18867;SDS011;9563;49.240;9.088;2023-07-29T19:02:33;5.20;;;2.80;;
18867;SDS011;9563;49.240;9.088;2023-07-29T19:05:01;6.13;;;2.80;;